sensor_id;sensor_type;location;lat;lon;timestamp;P1;durP1;ratioP1;P2;durP2;ratioP2
10902;SDS011;5504;47.312;11.060;2023-06-14T00:01:44;4.10;;;3.60;;
10902;SDS011;5504;47.312;11.060;2023-06-14T00:04:13;4.90;;;3.90;;
10902;SDS011;5504;47.312;11.060;2023-06-14T00:06:41;4.37;;;3.63;;
10902;SDS011;5504;47.312;11.060;2023-06-14T00:09:10;5.37;;;3.87;;
10902;SDS011;5504;47.312;11.060;2023-06-14T00:11:38;4.93;;;3.80;;
10902;SDS011;5504;47.312;11.060;2023-06-14T00:14:05;4.83;;;3.73;;
10902;SDS011;5504;47.312;11.060;2023-06-14T00:16:31;4.90;;;4.00;;
10902;SDS011;5504;47.312;11.060;2023-06-14T00:18:58;3.87;;;3.47;;
10902;SDS011;5504;47.312;11.060;2023-06-14T00:21:24;4.03;;;3.63;;
10902;SDS011;5504;47.312;11.060;2023-06-14T00:23:50;4.47;;;3.70;;
10902;SDS011;5504;47.312;11.060;2023-06-14T00:26:15;4.30;;;3.90;;
10902;SDS011;5504;47.312;11.060;2023-06-14T00:28:41;4.03;;;3.50;;
10902;SDS011;5504;47.312;11.060;2023-06-14T00:31:07;4.57;;;3.90;;
10902;SDS011;5504;47.312;11.060;2023-06-14T00:33:33;4.50;;;3.70;;
10902;SDS011;5504;47.312;11.060;2023-06-14T00:35:58;4.60;;;4.00;;
10902;SDS011;5504;47.312;11.060;2023-06-14T00:38:24;4.53;;;4.00;;
10902;SDS011;5504;47.312;11.060;2023-06-14T00:40:50;6.10;;;4.03;;
10902;SDS011;5504;47.312;11.060;2023-06-14T00:43:16;4.67;;;3.93;;
10902;SDS011;5504;47.312;11.060;2023-06-14T00:45:41;5.27;;;4.20;;
10902;SDS011;5504;47.312;11.060;2023-06-14T00:48:07;4.10;;;3.50;;
10902;SDS011;5504;47.312;11.060;2023-06-14T00:50:34;4.60;;;3.80;;
10902;SDS011;5504;47.312;11.060;2023-06-14T00:53:01;5.10;;;4.10;;
10902;SDS011;5504;47.312;11.060;2023-06-14T00:55:28;4.43;;;4.03;;
10902;SDS011;5504;47.312;11.060;2023-06-14T00:57:54;5.43;;;4.17;;
10902;SDS011;5504;47.312;11.060;2023-06-14T01:00:20;5.90;;;3.90;;
10902;SDS011;5504;47.312;11.060;2023-06-14T01:02:46;5.30;;;4.30;;
10902;SDS011;5504;47.312;11.060;2023-06-14T01:05:12;4.40;;;3.90;;
10902;SDS011;5504;47.312;11.060;2023-06-14T01:07:43;4.67;;;4.00;;
10902;SDS011;5504;47.312;11.060;2023-06-14T01:12:53;4.07;;;3.60;;
10902;SDS011;5504;47.312;11.060;2023-06-14T01:15:43;4.63;;;3.80;;
10902;SDS011;5504;47.312;11.060;2023-06-14T01:18:09;4.13;;;3.67;;
10902;SDS011;5504;47.312;11.060;2023-06-14T01:20:42;3.80;;;3.50;;
10902;SDS011;5504;47.312;11.060;2023-06-14T01:23:10;4.67;;;3.87;;
10902;SDS011;5504;47.312;11.060;2023-06-14T01:25:39;4.80;;;3.90;;
10902;SDS011;5504;47.312;11.060;2023-06-14T01:28:09;6.10;;;4.10;;
10902;SDS011;5504;47.312;11.060;2023-06-14T01:30:38;4.40;;;3.83;;
10902;SDS011;5504;47.312;11.060;2023-06-14T01:33:09;4.87;;;3.93;;
10902;SDS011;5504;47.312;11.060;2023-06-14T01:35:40;5.07;;;3.97;;
10902;SDS011;5504;47.312;11.060;2023-06-14T01:38:13;4.47;;;4.07;;
10902;SDS011;5504;47.312;11.060;2023-06-14T01:40:45;5.27;;;3.87;;
10902;SDS011;5504;47.312;11.060;2023-06-14T01:43:13;4.60;;;4.00;;
10902;SDS011;5504;47.312;11.060;2023-06-14T01:45:41;4.80;;;4.17;;
10902;SDS011;5504;47.312;11.060;2023-06-14T01:48:11;4.13;;;3.73;;
10902;SDS011;5504;47.312;11.060;2023-06-14T01:50:37;4.30;;;3.67;;
10902;SDS011;5504;47.312;11.060;2023-06-14T01:53:05;4.10;;;3.70;;
10902;SDS011;5504;47.312;11.060;2023-06-14T01:55:34;4.03;;;3.63;;
10902;SDS011;5504;47.312;11.060;2023-06-14T01:58:02;4.10;;;3.70;;
10902;SDS011;5504;47.312;11.060;2023-06-14T02:00:29;4.27;;;3.87;;
10902;SDS011;5504;47.312;11.060;2023-06-14T02:02:54;5.60;;;4.07;;
10902;SDS011;5504;47.312;11.060;2023-06-14T02:05:20;4.40;;;3.67;;
10902;SDS011;5504;47.312;11.060;2023-06-14T02:07:46;4.73;;;4.10;;
10902;SDS011;5504;47.312;11.060;2023-06-14T02:10:12;5.10;;;4.10;;
10902;SDS011;5504;47.312;11.060;2023-06-14T02:12:39;4.90;;;3.83;;
10902;SDS011;5504;47.312;11.060;2023-06-14T02:15:05;5.07;;;4.33;;
10902;SDS011;5504;47.312;11.060;2023-06-14T02:17:32;4.23;;;3.80;;
10902;SDS011;5504;47.312;11.060;2023-06-14T02:19:58;5.80;;;4.00;;
10902;SDS011;5504;47.312;11.060;2023-06-14T02:22:24;4.60;;;3.97;;
10902;SDS011;5504;47.312;11.060;2023-06-14T02:24:49;5.37;;;3.90;;
10902;SDS011;5504;47.312;11.060;2023-06-14T02:27:15;4.77;;;4.27;;
10902;SDS011;5504;47.312;11.060;2023-06-14T02:29:41;5.80;;;4.23;;
10902;SDS011;5504;47.312;11.060;2023-06-14T02:32:07;4.40;;;3.83;;
10902;SDS011;5504;47.312;11.060;2023-06-14T02:34:34;4.83;;;3.63;;
10902;SDS011;5504;47.312;11.060;2023-06-14T02:37:00;5.20;;;3.60;;
10902;SDS011;5504;47.312;11.060;2023-06-14T02:39:28;5.03;;;4.10;;
10902;SDS011;5504;47.312;11.060;2023-06-14T02:41:54;4.03;;;3.63;;
10902;SDS011;5504;47.312;11.060;2023-06-14T02:44:23;4.57;;;4.07;;
10902;SDS011;5504;47.312;11.060;2023-06-14T02:46:52;4.50;;;3.97;;
10902;SDS011;5504;47.312;11.060;2023-06-14T02:49:19;4.30;;;3.73;;
10902;SDS011;5504;47.312;11.060;2023-06-14T02:51:45;4.90;;;4.20;;
10902;SDS011;5504;47.312;11.060;2023-06-14T02:54:10;4.30;;;3.90;;
10902;SDS011;5504;47.312;11.060;2023-06-14T02:56:36;4.60;;;3.90;;
10902;SDS011;5504;47.312;11.060;2023-06-14T02:59:02;4.40;;;4.00;;
10902;SDS011;5504;47.312;11.060;2023-06-14T03:01:27;4.93;;;4.27;;
10902;SDS011;5504;47.312;11.060;2023-06-14T03:04:02;4.70;;;4.27;;
10902;SDS011;5504;47.312;11.060;2023-06-14T03:06:29;5.60;;;4.13;;
10902;SDS011;5504;47.312;11.060;2023-06-14T03:08:55;4.87;;;3.93;;
10902;SDS011;5504;47.312;11.060;2023-06-14T03:11:26;5.53;;;4.40;;
10902;SDS011;5504;47.312;11.060;2023-06-14T03:13:52;4.00;;;3.60;;
10902;SDS011;5504;47.312;11.060;2023-06-14T03:16:18;5.37;;;3.87;;
10902;SDS011;5504;47.312;11.060;2023-06-14T03:18:48;4.67;;;3.90;;
10902;SDS011;5504;47.312;11.060;2023-06-14T03:21:14;5.53;;;4.13;;
10902;SDS011;5504;47.312;11.060;2023-06-14T03:23:41;5.60;;;4.20;;
10902;SDS011;5504;47.312;11.060;2023-06-14T03:26:07;5.63;;;4.30;;
10902;SDS011;5504;47.312;11.060;2023-06-14T03:28:33;4.57;;;4.03;;
10902;SDS011;5504;47.312;11.060;2023-06-14T03:30:59;5.03;;;4.10;;
10902;SDS011;5504;47.312;11.060;2023-06-14T03:33:26;4.40;;;4.00;;
10902;SDS011;5504;47.312;11.060;2023-06-14T03:35:52;4.30;;;3.90;;
10902;SDS011;5504;47.312;11.060;2023-06-14T03:38:18;4.40;;;4.00;;
10902;SDS011;5504;47.312;11.060;2023-06-14T03:40:43;5.00;;;4.07;;
10902;SDS011;5504;47.312;11.060;2023-06-14T03:43:10;4.17;;;3.77;;
10902;SDS011;5504;47.312;11.060;2023-06-14T03:45:35;4.40;;;4.00;;
10902;SDS011;5504;47.312;11.060;2023-06-14T03:48:01;4.40;;;4.00;;
10902;SDS011;5504;47.312;11.060;2023-06-14T03:50:27;6.20;;;4.33;;
10902;SDS011;5504;47.312;11.060;2023-06-14T03:52:53;5.60;;;4.17;;
10902;SDS011;5504;47.312;11.060;2023-06-14T03:55:19;5.03;;;4.00;;
10902;SDS011;5504;47.312;11.060;2023-06-14T03:57:45;4.93;;;4.17;;
10902;SDS011;5504;47.312;11.060;2023-06-14T04:00:11;5.03;;;4.40;;
10902;SDS011;5504;47.312;11.060;2023-06-14T04:02:37;4.70;;;3.90;;
10902;SDS011;5504;47.312;11.060;2023-06-14T04:05:03;5.47;;;4.03;;
10902;SDS011;5504;47.312;11.060;2023-06-14T04:07:33;4.90;;;4.37;;
10902;SDS011;5504;47.312;11.060;2023-06-14T04:10:05;4.67;;;4.17;;
10902;SDS011;5504;47.312;11.060;2023-06-14T04:12:32;5.90;;;4.40;;
10902;SDS011;5504;47.312;11.060;2023-06-14T04:14:58;6.03;;;4.20;;
10902;SDS011;5504;47.312;11.060;2023-06-14T04:17:23;5.40;;;3.97;;
10902;SDS011;5504;47.312;11.060;2023-06-14T04:19:49;5.00;;;4.43;;
10902;SDS011;5504;47.312;11.060;2023-06-14T04:22:15;5.00;;;4.10;;
10902;SDS011;5504;47.312;11.060;2023-06-14T04:24:41;5.80;;;4.07;;
10902;SDS011;5504;47.312;11.060;2023-06-14T04:27:07;5.63;;;4.10;;
10902;SDS011;5504;47.312;11.060;2023-06-14T04:29:33;5.40;;;4.23;;
10902;SDS011;5504;47.312;11.060;2023-06-14T04:31:58;5.70;;;4.40;;
10902;SDS011;5504;47.312;11.060;2023-06-14T04:34:27;7.80;;;4.20;;
10902;SDS011;5504;47.312;11.060;2023-06-14T04:36:58;5.50;;;4.67;;
10902;SDS011;5504;47.312;11.060;2023-06-14T04:39:26;4.93;;;4.17;;
10902;SDS011;5504;47.312;11.060;2023-06-14T04:41:52;5.73;;;4.50;;
10902;SDS011;5504;47.312;11.060;2023-06-14T04:44:22;7.73;;;4.57;;
10902;SDS011;5504;47.312;11.060;2023-06-14T04:46:55;4.60;;;4.20;;
10902;SDS011;5504;47.312;11.060;2023-06-14T04:49:23;5.97;;;4.47;;
10902;SDS011;5504;47.312;11.060;2023-06-14T04:51:49;5.47;;;4.53;;
10902;SDS011;5504;47.312;11.060;2023-06-14T04:54:22;5.07;;;4.50;;
10902;SDS011;5504;47.312;11.060;2023-06-14T04:56:49;5.10;;;4.60;;
10902;SDS011;5504;47.312;11.060;2023-06-14T04:59:15;5.43;;;4.00;;
10902;SDS011;5504;47.312;11.060;2023-06-14T05:01:42;5.30;;;4.60;;
10902;SDS011;5504;47.312;11.060;2023-06-14T05:04:13;6.47;;;4.60;;
10902;SDS011;5504;47.312;11.060;2023-06-14T05:06:40;5.07;;;4.20;;
10902;SDS011;5504;47.312;11.060;2023-06-14T05:09:15;5.27;;;4.43;;
10902;SDS011;5504;47.312;11.060;2023-06-14T05:11:44;5.30;;;4.70;;
10902;SDS011;5504;47.312;11.060;2023-06-14T05:14:10;4.77;;;4.23;;
10902;SDS011;5504;47.312;11.060;2023-06-14T05:16:37;5.40;;;4.77;;
10902;SDS011;5504;47.312;11.060;2023-06-14T05:19:04;6.17;;;4.90;;
10902;SDS011;5504;47.312;11.060;2023-06-14T05:21:30;5.13;;;4.70;;
10902;SDS011;5504;47.312;11.060;2023-06-14T05:23:58;5.47;;;4.80;;
10902;SDS011;5504;47.312;11.060;2023-06-14T05:26:24;5.43;;;4.67;;
10902;SDS011;5504;47.312;11.060;2023-06-14T05:28:53;5.83;;;4.93;;
10902;SDS011;5504;47.312;11.060;2023-06-14T05:31:21;7.63;;;5.30;;
10902;SDS011;5504;47.312;11.060;2023-06-14T05:33:50;5.93;;;4.60;;
10902;SDS011;5504;47.312;11.060;2023-06-14T05:36:17;7.87;;;5.67;;
10902;SDS011;5504;47.312;11.060;2023-06-14T05:38:43;6.00;;;4.87;;
10902;SDS011;5504;47.312;11.060;2023-06-14T05:41:08;6.43;;;5.20;;
10902;SDS011;5504;47.312;11.060;2023-06-14T05:43:34;6.20;;;5.30;;
10902;SDS011;5504;47.312;11.060;2023-06-14T05:46:00;5.80;;;5.10;;
10902;SDS011;5504;47.312;11.060;2023-06-14T05:48:25;6.07;;;5.10;;
10902;SDS011;5504;47.312;11.060;2023-06-14T05:50:51;5.93;;;5.07;;
10902;SDS011;5504;47.312;11.060;2023-06-14T05:53:17;6.00;;;5.10;;
10902;SDS011;5504;47.312;11.060;2023-06-14T05:55:43;6.00;;;5.20;;
10902;SDS011;5504;47.312;11.060;2023-06-14T05:58:08;6.83;;;5.43;;
10902;SDS011;5504;47.312;11.060;2023-06-14T06:00:35;6.13;;;5.03;;
10902;SDS011;5504;47.312;11.060;2023-06-14T06:03:01;5.77;;;4.60;;
10902;SDS011;5504;47.312;11.060;2023-06-14T06:05:27;5.57;;;4.50;;
10902;SDS011;5504;47.312;11.060;2023-06-14T06:07:53;5.27;;;4.57;;
10902;SDS011;5504;47.312;11.060;2023-06-14T06:10:18;5.17;;;4.60;;
10902;SDS011;5504;47.312;11.060;2023-06-14T06:12:44;4.90;;;4.40;;
10902;SDS011;5504;47.312;11.060;2023-06-14T06:15:12;5.70;;;4.80;;
10902;SDS011;5504;47.312;11.060;2023-06-14T06:17:38;5.30;;;4.20;;
10902;SDS011;5504;47.312;11.060;2023-06-14T06:20:04;7.10;;;4.57;;
10902;SDS011;5504;47.312;11.060;2023-06-14T06:22:33;5.87;;;4.50;;
10902;SDS011;5504;47.312;11.060;2023-06-14T06:24:59;5.60;;;4.73;;
10902;SDS011;5504;47.312;11.060;2023-06-14T06:27:25;5.13;;;4.63;;
10902;SDS011;5504;47.312;11.060;2023-06-14T06:29:50;5.37;;;4.83;;
10902;SDS011;5504;47.312;11.060;2023-06-14T06:32:17;5.73;;;4.70;;
10902;SDS011;5504;47.312;11.060;2023-06-14T06:34:42;6.30;;;5.07;;
10902;SDS011;5504;47.312;11.060;2023-06-14T06:37:08;5.22;;;4.57;;
10902;SDS011;5504;47.312;11.060;2023-06-14T06:39:34;5.45;;;4.90;;
10902;SDS011;5504;47.312;11.060;2023-06-14T06:42:00;5.88;;;4.53;;
10902;SDS011;5504;47.312;11.060;2023-06-14T06:44:26;7.80;;;4.85;;
10902;SDS011;5504;47.312;11.060;2023-06-14T06:46:51;5.35;;;4.35;;
10902;SDS011;5504;47.312;11.060;2023-06-14T06:49:17;6.30;;;4.93;;
10902;SDS011;5504;47.312;11.060;2023-06-14T06:51:43;7.38;;;4.70;;
10902;SDS011;5504;47.312;11.060;2023-06-14T06:54:09;6.35;;;4.68;;
10902;SDS011;5504;47.312;11.060;2023-06-14T06:56:35;5.03;;;4.53;;
10902;SDS011;5504;47.312;11.060;2023-06-14T06:59:01;4.88;;;4.38;;
10902;SDS011;5504;47.312;11.060;2023-06-14T07:01:27;5.10;;;4.32;;
10902;SDS011;5504;47.312;11.060;2023-06-14T07:03:54;5.28;;;4.15;;
10902;SDS011;5504;47.312;11.060;2023-06-14T07:06:20;4.72;;;4.32;;
10902;SDS011;5504;47.312;11.060;2023-06-14T07:08:46;5.10;;;4.60;;
10902;SDS011;5504;47.312;11.060;2023-06-14T07:11:13;5.53;;;4.53;;
10902;SDS011;5504;47.312;11.060;2023-06-14T07:13:39;4.60;;;4.10;;
10902;SDS011;5504;47.312;11.060;2023-06-14T07:16:05;5.85;;;4.47;;
10902;SDS011;5504;47.312;11.060;2023-06-14T07:18:31;5.18;;;4.55;;
10902;SDS011;5504;47.312;11.060;2023-06-14T07:20:57;5.72;;;4.38;;
10902;SDS011;5504;47.312;11.060;2023-06-14T07:23:23;5.93;;;4.50;;
10902;SDS011;5504;47.312;11.060;2023-06-14T07:25:49;4.90;;;4.40;;
10902;SDS011;5504;47.312;11.060;2023-06-14T07:28:16;4.75;;;4.25;;
10902;SDS011;5504;47.312;11.060;2023-06-14T07:30:43;5.28;;;4.50;;
10902;SDS011;5504;47.312;11.060;2023-06-14T07:33:08;5.45;;;4.40;;
10902;SDS011;5504;47.312;11.060;2023-06-14T07:35:35;5.75;;;4.50;;
10902;SDS011;5504;47.312;11.060;2023-06-14T07:38:01;5.25;;;4.45;;
10902;SDS011;5504;47.312;11.060;2023-06-14T07:40:26;4.97;;;4.47;;
10902;SDS011;5504;47.312;11.060;2023-06-14T07:42:52;4.93;;;4.43;;
10902;SDS011;5504;47.312;11.060;2023-06-14T07:45:19;5.28;;;4.20;;
10902;SDS011;5504;47.312;11.060;2023-06-14T07:47:45;4.28;;;3.88;;
10902;SDS011;5504;47.312;11.060;2023-06-14T07:50:11;6.03;;;4.38;;
10902;SDS011;5504;47.312;11.060;2023-06-14T07:52:38;4.97;;;4.47;;
10902;SDS011;5504;47.312;11.060;2023-06-14T07:55:04;4.85;;;4.32;;
10902;SDS011;5504;47.312;11.060;2023-06-14T07:57:31;5.80;;;4.30;;
10902;SDS011;5504;47.312;11.060;2023-06-14T07:59:56;4.50;;;3.60;;
10902;SDS011;5504;47.312;11.060;2023-06-14T08:02:22;4.55;;;4.10;;
10902;SDS011;5504;47.312;11.060;2023-06-14T08:04:48;4.55;;;4.00;;
10902;SDS011;5504;47.312;11.060;2023-06-14T08:07:14;4.90;;;4.18;;
10902;SDS011;5504;47.312;11.060;2023-06-14T08:09:40;5.63;;;4.53;;
10902;SDS011;5504;47.312;11.060;2023-06-14T08:12:06;4.28;;;3.88;;
10902;SDS011;5504;47.312;11.060;2023-06-14T08:14:35;4.68;;;4.25;;
10902;SDS011;5504;47.312;11.060;2023-06-14T08:17:01;4.78;;;4.28;;
10902;SDS011;5504;47.312;11.060;2023-06-14T08:19:27;4.40;;;4.00;;
10902;SDS011;5504;47.312;11.060;2023-06-14T08:21:53;4.38;;;3.97;;
10902;SDS011;5504;47.312;11.060;2023-06-14T08:24:23;4.25;;;3.85;;
10902;SDS011;5504;47.312;11.060;2023-06-14T08:26:54;6.03;;;4.60;;
10902;SDS011;5504;47.312;11.060;2023-06-14T08:29:21;5.45;;;3.80;;
10902;SDS011;5504;47.312;11.060;2023-06-14T08:31:47;5.25;;;3.90;;
10902;SDS011;5504;47.312;11.060;2023-06-14T08:34:13;4.43;;;4.03;;
10902;SDS011;5504;47.312;11.060;2023-06-14T08:36:39;6.93;;;4.20;;
10902;SDS011;5504;47.312;11.060;2023-06-14T08:39:04;4.68;;;4.00;;
10902;SDS011;5504;47.312;11.060;2023-06-14T08:41:31;6.07;;;4.25;;
10902;SDS011;5504;47.312;11.060;2023-06-14T08:43:57;5.03;;;3.67;;
10902;SDS011;5504;47.312;11.060;2023-06-14T08:46:25;4.18;;;3.60;;
10902;SDS011;5504;47.312;11.060;2023-06-14T08:48:52;3.85;;;3.53;;
10902;SDS011;5504;47.312;11.060;2023-06-14T08:51:23;4.05;;;3.65;;
10902;SDS011;5504;47.312;11.060;2023-06-14T08:53:55;4.25;;;3.33;;
10902;SDS011;5504;47.312;11.060;2023-06-14T08:56:23;4.28;;;3.88;;
10902;SDS011;5504;47.312;11.060;2023-06-14T08:58:54;4.32;;;3.90;;
10902;SDS011;5504;47.312;11.060;2023-06-14T09:01:21;4.18;;;3.40;;
10902;SDS011;5504;47.312;11.060;2023-06-14T09:03:48;6.07;;;4.00;;
10902;SDS011;5504;47.312;11.060;2023-06-14T09:06:14;4.10;;;3.55;;
10902;SDS011;5504;47.312;11.060;2023-06-14T09:08:43;4.35;;;3.60;;
10902;SDS011;5504;47.312;11.060;2023-06-14T09:11:11;4.45;;;3.90;;
10902;SDS011;5504;47.312;11.060;2023-06-14T09:13:37;4.90;;;3.80;;
10902;SDS011;5504;47.312;11.060;2023-06-14T09:16:04;4.82;;;3.90;;
10902;SDS011;5504;47.312;11.060;2023-06-14T09:18:37;4.13;;;3.53;;
10902;SDS011;5504;47.312;11.060;2023-06-14T09:21:12;3.85;;;3.55;;
10902;SDS011;5504;47.312;11.060;2023-06-14T09:23:46;4.00;;;3.60;;
10902;SDS011;5504;47.312;11.060;2023-06-14T09:26:19;4.07;;;3.67;;
10902;SDS011;5504;47.312;11.060;2023-06-14T09:28:46;4.20;;;3.80;;
10902;SDS011;5504;47.312;11.060;2023-06-14T09:31:13;4.20;;;3.60;;
10902;SDS011;5504;47.312;11.060;2023-06-14T09:33:42;4.50;;;3.78;;
10902;SDS011;5504;47.312;11.060;2023-06-14T09:36:20;4.47;;;3.60;;
10902;SDS011;5504;47.312;11.060;2023-06-14T09:39:03;4.20;;;3.80;;
10902;SDS011;5504;47.312;11.060;2023-06-14T09:41:34;4.10;;;3.70;;
10902;SDS011;5504;47.312;11.060;2023-06-14T09:44:01;5.25;;;3.75;;
10902;SDS011;5504;47.312;11.060;2023-06-14T09:46:30;4.93;;;3.67;;
10902;SDS011;5504;47.312;11.060;2023-06-14T09:48:59;4.55;;;4.13;;
10902;SDS011;5504;47.312;11.060;2023-06-14T09:51:26;4.18;;;3.78;;
10902;SDS011;5504;47.312;11.060;2023-06-14T09:53:53;4.22;;;3.83;;
10902;SDS011;5504;47.312;11.060;2023-06-14T09:58:58;5.38;;;4.15;;
10902;SDS011;5504;47.312;11.060;2023-06-14T10:01:25;3.95;;;3.50;;
10902;SDS011;5504;47.312;11.060;2023-06-14T10:06:28;4.43;;;3.78;;
10902;SDS011;5504;47.312;11.060;2023-06-14T10:08:56;4.22;;;3.53;;
10902;SDS011;5504;47.312;11.060;2023-06-14T10:11:25;4.00;;;3.60;;
10902;SDS011;5504;47.312;11.060;2023-06-14T10:13:51;3.90;;;3.60;;
10902;SDS011;5504;47.312;11.060;2023-06-14T10:24:17;3.60;;;3.30;;
10902;SDS011;5504;47.312;11.060;2023-06-14T10:26:51;6.07;;;3.45;;
10902;SDS011;5504;47.312;11.060;2023-06-14T10:29:18;4.57;;;3.67;;
10902;SDS011;5504;47.312;11.060;2023-06-14T10:31:45;4.00;;;3.63;;
10902;SDS011;5504;47.312;11.060;2023-06-14T10:34:21;3.70;;;3.40;;
10902;SDS011;5504;47.312;11.060;2023-06-14T10:37:07;3.88;;;3.47;;
10902;SDS011;5504;47.312;11.060;2023-06-14T10:39:42;3.80;;;3.50;;
10902;SDS011;5504;47.312;11.060;2023-06-14T10:42:12;4.32;;;3.58;;
10902;SDS011;5504;47.312;11.060;2023-06-14T10:44:39;4.20;;;3.78;;
10902;SDS011;5504;47.312;11.060;2023-06-14T10:47:07;4.38;;;3.88;;
10902;SDS011;5504;47.312;11.060;2023-06-14T10:49:45;4.10;;;3.60;;
10902;SDS011;5504;47.312;11.060;2023-06-14T10:52:17;4.35;;;3.95;;
10902;SDS011;5504;47.312;11.060;2023-06-14T10:57:34;6.70;;;4.63;;
10902;SDS011;5504;47.312;11.060;2023-06-14T11:00:27;4.80;;;4.10;;
10902;SDS011;5504;47.312;11.060;2023-06-14T11:10:41;3.63;;;3.33;;
10902;SDS011;5504;47.312;11.060;2023-06-14T11:13:10;3.72;;;3.42;;
10902;SDS011;5504;47.312;11.060;2023-06-14T11:15:36;3.90;;;3.60;;
10902;SDS011;5504;47.312;11.060;2023-06-14T11:18:07;4.75;;;3.40;;
10902;SDS011;5504;47.312;11.060;2023-06-14T11:20:35;3.60;;;3.30;;
10902;SDS011;5504;47.312;11.060;2023-06-14T11:23:01;3.90;;;3.50;;
10902;SDS011;5504;47.312;11.060;2023-06-14T11:25:28;5.00;;;3.90;;
10902;SDS011;5504;47.312;11.060;2023-06-14T11:27:54;5.63;;;3.75;;
10902;SDS011;5504;47.312;11.060;2023-06-14T11:30:24;4.00;;;3.60;;
10902;SDS011;5504;47.312;11.060;2023-06-14T11:32:51;3.83;;;3.53;;
10902;SDS011;5504;47.312;11.060;2023-06-14T11:35:19;3.88;;;3.50;;
10902;SDS011;5504;47.312;11.060;2023-06-14T11:37:48;4.25;;;3.85;;
10902;SDS011;5504;47.312;11.060;2023-06-14T11:40:17;4.13;;;3.65;;
10902;SDS011;5504;47.312;11.060;2023-06-14T11:42:43;4.20;;;3.63;;
10902;SDS011;5504;47.312;11.060;2023-06-14T11:45:09;3.70;;;3.30;;
10902;SDS011;5504;47.312;11.060;2023-06-14T11:47:37;4.10;;;3.50;;
10902;SDS011;5504;47.312;11.060;2023-06-14T11:50:05;3.85;;;3.28;;
10902;SDS011;5504;47.312;11.060;2023-06-14T11:52:33;3.65;;;3.35;;
10902;SDS011;5504;47.312;11.060;2023-06-14T11:54:59;4.68;;;3.47;;
10902;SDS011;5504;47.312;11.060;2023-06-14T11:57:26;4.28;;;3.58;;
10902;SDS011;5504;47.312;11.060;2023-06-14T11:59:51;3.08;;;2.85;;
10902;SDS011;5504;47.312;11.060;2023-06-14T12:02:21;3.50;;;3.00;;
10902;SDS011;5504;47.312;11.060;2023-06-14T12:04:47;3.75;;;3.00;;
10902;SDS011;5504;47.312;11.060;2023-06-14T12:07:16;3.70;;;2.92;;
10902;SDS011;5504;47.312;11.060;2023-06-14T12:12:22;3.20;;;2.90;;
10902;SDS011;5504;47.312;11.060;2023-06-14T12:14:51;3.22;;;2.97;;
10902;SDS011;5504;47.312;11.060;2023-06-14T12:17:18;3.00;;;2.70;;
10902;SDS011;5504;47.312;11.060;2023-06-14T12:19:44;3.17;;;2.88;;
10902;SDS011;5504;47.312;11.060;2023-06-14T12:22:11;3.35;;;3.00;;
10902;SDS011;5504;47.312;11.060;2023-06-14T12:24:38;4.15;;;3.10;;
10902;SDS011;5504;47.312;11.060;2023-06-14T12:27:04;3.30;;;3.00;;
10902;SDS011;5504;47.312;11.060;2023-06-14T12:29:33;3.70;;;3.40;;
10902;SDS011;5504;47.312;11.060;2023-06-14T12:32:00;4.25;;;3.55;;
10902;SDS011;5504;47.312;11.060;2023-06-14T12:34:28;3.83;;;3.53;;
10902;SDS011;5504;47.312;11.060;2023-06-14T12:36:53;3.90;;;3.58;;
10902;SDS011;5504;47.312;11.060;2023-06-14T12:39:19;3.95;;;3.47;;
10902;SDS011;5504;47.312;11.060;2023-06-14T12:41:46;4.25;;;3.40;;
10902;SDS011;5504;47.312;11.060;2023-06-14T12:44:13;5.93;;;3.83;;
10902;SDS011;5504;47.312;11.060;2023-06-14T12:46:40;5.07;;;3.38;;
10902;SDS011;5504;47.312;11.060;2023-06-14T12:49:08;4.88;;;3.55;;
10902;SDS011;5504;47.312;11.060;2023-06-14T12:51:37;4.22;;;3.60;;
10902;SDS011;5504;47.312;11.060;2023-06-14T12:54:03;3.95;;;3.33;;
10902;SDS011;5504;47.312;11.060;2023-06-14T12:56:29;3.40;;;3.10;;
10902;SDS011;5504;47.312;11.060;2023-06-14T12:58:55;5.32;;;3.58;;
10902;SDS011;5504;47.312;11.060;2023-06-14T13:01:21;3.70;;;3.30;;
10902;SDS011;5504;47.312;11.060;2023-06-14T13:03:47;3.70;;;3.40;;
10902;SDS011;5504;47.312;11.060;2023-06-14T13:06:13;3.95;;;3.55;;
10902;SDS011;5504;47.312;11.060;2023-06-14T13:08:39;3.83;;;3.53;;
10902;SDS011;5504;47.312;11.060;2023-06-14T13:11:04;4.00;;;3.60;;
10902;SDS011;5504;47.312;11.060;2023-06-14T13:13:30;4.10;;;3.70;;
10902;SDS011;5504;47.312;11.060;2023-06-14T13:15:56;4.40;;;3.50;;
10902;SDS011;5504;47.312;11.060;2023-06-14T13:18:22;4.07;;;3.72;;
10902;SDS011;5504;47.312;11.060;2023-06-14T13:20:47;6.38;;;3.70;;
10902;SDS011;5504;47.312;11.060;2023-06-14T13:23:16;6.80;;;3.55;;
10902;SDS011;5504;47.312;11.060;2023-06-14T13:25:42;4.53;;;3.65;;
10902;SDS011;5504;47.312;11.060;2023-06-14T13:28:08;3.63;;;3.22;;
10902;SDS011;5504;47.312;11.060;2023-06-14T13:30:34;4.63;;;3.50;;
10902;SDS011;5504;47.312;11.060;2023-06-14T13:33:00;4.03;;;3.40;;
10902;SDS011;5504;47.312;11.060;2023-06-14T13:35:26;4.18;;;3.78;;
10902;SDS011;5504;47.312;11.060;2023-06-14T13:37:52;3.90;;;3.50;;
10902;SDS011;5504;47.312;11.060;2023-06-14T13:40:18;3.97;;;3.58;;
10902;SDS011;5504;47.312;11.060;2023-06-14T13:42:44;3.97;;;3.60;;
10902;SDS011;5504;47.312;11.060;2023-06-14T13:45:13;4.20;;;3.75;;
10902;SDS011;5504;47.312;11.060;2023-06-14T13:47:40;4.10;;;3.70;;
10902;SDS011;5504;47.312;11.060;2023-06-14T13:50:06;4.40;;;3.58;;
10902;SDS011;5504;47.312;11.060;2023-06-14T13:52:32;6.10;;;3.92;;
10902;SDS011;5504;47.312;11.060;2023-06-14T13:54:57;3.95;;;3.58;;
10902;SDS011;5504;47.312;11.060;2023-06-14T13:57:23;7.05;;;3.70;;
10902;SDS011;5504;47.312;11.060;2023-06-14T13:59:49;5.32;;;3.38;;
10902;SDS011;5504;47.312;11.060;2023-06-14T14:02:15;4.68;;;4.00;;
10902;SDS011;5504;47.312;11.060;2023-06-14T14:04:41;3.97;;;3.40;;
10902;SDS011;5504;47.312;11.060;2023-06-14T14:07:07;5.63;;;3.70;;
10902;SDS011;5504;47.312;11.060;2023-06-14T14:09:33;8.40;;;3.80;;
10902;SDS011;5504;47.312;11.060;2023-06-14T14:12:03;16.70;;;4.05;;
10902;SDS011;5504;47.312;11.060;2023-06-14T14:14:30;3.83;;;3.47;;
10902;SDS011;5504;47.312;11.060;2023-06-14T14:16:57;5.00;;;3.90;;
10902;SDS011;5504;47.312;11.060;2023-06-14T14:19:23;5.60;;;3.75;;
10902;SDS011;5504;47.312;11.060;2023-06-14T14:21:49;4.97;;;3.63;;
10902;SDS011;5504;47.312;11.060;2023-06-14T14:24:15;7.30;;;3.97;;
10902;SDS011;5504;47.312;11.060;2023-06-14T14:26:41;4.38;;;3.97;;
10902;SDS011;5504;47.312;11.060;2023-06-14T14:29:07;4.03;;;3.53;;
10902;SDS011;5504;47.312;11.060;2023-06-14T14:31:33;4.30;;;3.63;;
10902;SDS011;5504;47.312;11.060;2023-06-14T14:33:59;4.78;;;3.78;;
10902;SDS011;5504;47.312;11.060;2023-06-14T14:36:25;5.07;;;3.80;;
10902;SDS011;5504;47.312;11.060;2023-06-14T14:38:50;4.90;;;3.78;;
10902;SDS011;5504;47.312;11.060;2023-06-14T14:41:19;4.38;;;3.65;;
10902;SDS011;5504;47.312;11.060;2023-06-14T14:43:45;4.00;;;3.60;;
10902;SDS011;5504;47.312;11.060;2023-06-14T14:46:11;4.32;;;3.67;;
10902;SDS011;5504;47.312;11.060;2023-06-14T14:48:36;4.68;;;4.20;;
10902;SDS011;5504;47.312;11.060;2023-06-14T14:51:02;4.85;;;3.90;;
10902;SDS011;5504;47.312;11.060;2023-06-14T14:53:28;4.15;;;3.40;;
10902;SDS011;5504;47.312;11.060;2023-06-14T14:55:54;5.10;;;3.63;;
10902;SDS011;5504;47.312;11.060;2023-06-14T14:58:19;4.20;;;3.80;;
10902;SDS011;5504;47.312;11.060;2023-06-14T15:00:46;4.90;;;3.53;;
10902;SDS011;5504;47.312;11.060;2023-06-14T15:03:12;3.75;;;3.45;;
10902;SDS011;5504;47.312;11.060;2023-06-14T15:05:38;4.93;;;3.83;;
10902;SDS011;5504;47.312;11.060;2023-06-14T15:08:04;5.93;;;4.07;;
10902;SDS011;5504;47.312;11.060;2023-06-14T15:10:35;4.07;;;3.60;;
10902;SDS011;5504;47.312;11.060;2023-06-14T15:13:01;4.00;;;3.70;;
10902;SDS011;5504;47.312;11.060;2023-06-14T15:15:27;4.07;;;3.63;;
10902;SDS011;5504;47.312;11.060;2023-06-14T15:17:52;4.45;;;4.05;;